Terminal Aerodrome Forecast
Issued by NWS

Home | Current Version | Previous Version | Text Only | Print | Product List | Glossary On
Versions: 1 2 3 4 5 6 7 8 9 10 11 12 13
000
FTUS43 KOAX 281136
TAFBFF
TAF
KBFF 281136Z 2812/2912 30015G25KT P6SM BKN080
     FM281800 32022G35KT P6SM BKN040
     FM290200 32013KT P6SM BKN100
      AMD NOT SKED=

USA.gov is the U.S. government's official web portal to all federal, state and local government web resources and services.